Terminal Aerodrome Forecast
Issued by NWS

Home | Current Version | Previous Version | Text Only | Print | Product List | Glossary On
Versions: 1 2 3 4 5 6 7 8 9 10 11 12 13 14 15 16 17 18 19 20 21 22 23 24 25
000
FTUS44 KOHX 291126
TAFCKV
TAF
KCKV 291126Z 2912/3012 24003KT P6SM FEW050 BKN150
      TEMPO 2912/2913 5SM BR
     FM291400 VRB04KT P6SM SCT100 BKN250
     FM291800 32008KT P6SM VCTS SCT050CB BKN250
     FM300100 34004KT P6SM SCT050 BKN150=

USA.gov is the U.S. government's official web portal to all federal, state and local government web resources and services.